Terminal Aerodrome Forecast
Issued by NWS Wilmington, OH

Current Version | Previous Version | Text Only | Print | Product List | Glossary On
Versions: 1 2 3 4 5 6 7 8 9 10 11 12 13 14 15 16 17 18 19 20 21 22 23
000
FTUS41 KILN 250700 AAA
TAFCMH
TAF AMD
KCMH 250700Z 2507/2606 21005KT P6SM OVC035
     FM251700 08007KT 3SM -RA OVC015
     FM252200 08009KT 1SM -SN OVC012
     FM260000 04013G21KT 1SM -SN OVC007
      TEMPO 2600/2603 1/2SM SN=

USA.gov is the U.S. government's official web portal to all federal, state and local government web resources and services.